Armstrong, Alabama
Current Conditions -  °F | °C
As of 9:55 PM on Saturday 25 Oct 2014 (Local Time) from KAUO Reporting Station
Clear Clear  
Wind Chill: 15°   Ceiling: Unl
Heat Index: 15°   Visibility: 10mi
Dew Point:   Wind: 3mph
Humidity: 67%   Direction: 330°NNW
Pressure: 30.09"   Gusts: NA
Location:  32.2227°N, 85.6394°W
Report Text: KAUO 260255Z AUTO 33003KT 10SM CLR 15/09 A3009 RMK AO1 52007
Loading
Personal Weather Stations






























Interactive Weather Map New forecast layout! Learn more

10-Day Weather Forecast

Advertisements
Track Severe Weather on mobile